createdAt,value
2022-08-12T00:02:43.560Z,72.90
2022-08-12T00:05:28.630Z,72.80
2022-08-12T00:08:15.720Z,73.50
2022-08-12T00:11:12.303Z,75.20
2022-08-12T00:13:57.715Z,74.10
2022-08-12T00:16:48.591Z,73.50
2022-08-12T00:19:34.112Z,75.40
2022-08-12T00:22:19.158Z,74.80
2022-08-12T00:25:05.192Z,74.90
2022-08-12T00:27:50.254Z,75.50
2022-08-12T00:30:35.361Z,75.00
2022-08-12T00:33:22.113Z,74.80
2022-08-12T00:36:35.278Z,74.70
2022-08-12T00:39:16.467Z,74.60
2022-08-12T00:42:02.028Z,75.00
2022-08-12T00:44:28.658Z,75.00
2022-08-12T00:46:57.599Z,74.90
2022-08-12T00:49:24.636Z,75.70
2022-08-12T00:52:08.818Z,75.50
2022-08-12T00:54:44.206Z,76.50
2022-08-12T00:57:14.930Z,76.90
2022-08-12T00:59:52.828Z,78.40
2022-08-12T01:02:23.861Z,78.50
2022-08-12T01:05:21.349Z,79.00
2022-08-12T01:08:07.008Z,78.90
2022-08-12T01:10:54.004Z,78.80
2022-08-12T01:13:21.329Z,78.70
2022-08-12T01:15:50.469Z,78.80
2022-08-12T01:18:18.974Z,78.80
2022-08-12T01:21:17.285Z,80.00
2022-08-12T01:24:29.498Z,79.80
2022-08-12T01:26:51.080Z,79.80
2022-08-12T01:29:20.814Z,80.40
2022-08-12T01:31:48.112Z,81.40
2022-08-12T01:34:36.517Z,82.20
2022-08-12T01:37:03.370Z,82.50
2022-08-12T01:39:32.352Z,81.10
2022-08-12T01:42:02.606Z,83.60
2022-08-12T01:44:29.353Z,84.10
2022-08-12T01:47:32.554Z,84.30
2022-08-12T01:50:26.264Z,83.40
2022-08-12T01:53:11.271Z,84.70
2022-08-12T01:55:42.548Z,84.00
2022-08-12T01:58:30.080Z,84.10
2022-08-12T02:01:03.763Z,84.40
2022-08-12T02:04:12.635Z,84.00
2022-08-12T02:07:13.234Z,84.10
2022-08-12T02:10:05.792Z,83.70
2022-08-12T02:12:54.473Z,83.80
2022-08-12T02:15:42.507Z,82.90
2022-08-12T02:18:46.157Z,83.20
2022-08-12T02:21:32.554Z,86.00
2022-08-12T02:23:59.489Z,85.10
2022-08-12T02:26:26.690Z,86.30
2022-08-12T02:28:53.317Z,88.50
2022-08-12T02:31:19.990Z,87.20
2022-08-12T02:33:47.555Z,87.40
2022-08-12T02:36:16.289Z,86.50
2022-08-12T02:38:43.661Z,86.00
2022-08-12T02:41:11.432Z,86.50
2022-08-12T02:43:54.834Z,88.00
2022-08-12T02:46:27.525Z,88.10
2022-08-12T02:49:00.819Z,87.30
2022-08-12T02:51:33.257Z,89.50
2022-08-12T02:54:06.571Z,90.30
2022-08-12T02:56:40.399Z,88.40
2022-08-12T02:59:12.291Z,88.70
2022-08-12T03:01:48.546Z,88.30
2022-08-12T03:04:24.377Z,89.50
2022-08-12T03:07:18.662Z,88.10
2022-08-12T03:10:03.879Z,88.10
2022-08-12T03:12:44.802Z,87.70
2022-08-12T03:15:18.098Z,88.60
2022-08-12T03:18:27.668Z,87.70
2022-08-12T03:20:48.730Z,88.50
2022-08-12T03:23:23.153Z,89.10
2022-08-12T03:25:58.723Z,90.40
2022-08-12T03:28:44.022Z,90.30
2022-08-12T03:31:10.810Z,90.30
2022-08-12T03:33:39.488Z,91.30
2022-08-12T03:36:07.532Z,90.70
2022-08-12T03:38:37.250Z,91.70
2022-08-12T03:41:35.230Z,92.10
2022-08-12T03:44:28.374Z,93.10
2022-08-12T03:47:41.997Z,92.20
2022-08-12T03:50:27.011Z,92.80
2022-08-12T03:53:12.174Z,94.10
2022-08-12T03:55:57.118Z,92.90
2022-08-12T03:58:42.268Z,92.20
2022-08-12T04:01:09.009Z,91.90
2022-08-12T04:03:54.661Z,93.00
2022-08-12T04:06:35.158Z,92.00
2022-08-12T04:09:03.340Z,92.60
2022-08-12T04:11:48.365Z,93.00
2022-08-12T04:14:22.294Z,93.80
2022-08-12T04:16:49.422Z,93.20
2022-08-12T04:19:16.394Z,92.50
2022-08-12T04:22:02.224Z,93.60
2022-08-12T04:24:34.918Z,94.00
2022-08-12T04:27:02.372Z,95.10
2022-08-12T04:30:16.726Z,93.30
2022-08-12T04:32:15.787Z,94.50
2022-08-12T04:34:44.410Z,95.70
2022-08-12T04:37:12.532Z,95.20
2022-08-12T04:39:39.514Z,94.30
2022-08-12T04:42:06.529Z,95.70
2022-08-12T04:44:33.141Z,95.10
2022-08-12T04:47:00.158Z,95.40
2022-08-12T04:49:27.734Z,95.90
2022-08-12T04:51:58.825Z,95.10
2022-08-12T04:54:26.968Z,95.40
2022-08-12T04:57:03.614Z,95.60
2022-08-12T04:59:32.698Z,94.10
2022-08-12T05:02:14.622Z,93.50
2022-08-12T05:04:43.900Z,93.20
2022-08-12T05:07:11.446Z,92.70
2022-08-12T05:10:00.884Z,92.90
2022-08-12T05:12:25.411Z,93.90
2022-08-12T05:14:52.029Z,93.30
2022-08-12T05:17:18.805Z,93.50
2022-08-12T05:19:46.253Z,94.20
2022-08-12T05:22:13.126Z,92.80
2022-08-12T05:24:39.744Z,93.40
2022-08-12T05:27:06.435Z,95.10
2022-08-12T05:30:06.534Z,94.50
2022-08-12T05:32:25.631Z,95.50
2022-08-12T05:34:53.664Z,95.50
2022-08-12T05:37:23.505Z,94.90
2022-08-12T05:39:50.395Z,92.20
2022-08-12T05:42:18.141Z,91.20
2022-08-12T05:45:00.007Z,91.90
2022-08-12T05:47:42.778Z,91.80
2022-08-12T05:50:15.855Z,92.00
2022-08-12T05:52:42.606Z,91.00
2022-08-12T05:55:10.278Z,91.40
2022-08-12T05:57:38.498Z,91.90
2022-08-12T06:00:05.784Z,92.10
2022-08-12T06:02:32.474Z,93.80
2022-08-12T06:05:00.233Z,95.10
2022-08-12T06:07:42.800Z,94.70
2022-08-12T06:10:13.672Z,92.40
2022-08-12T06:12:40.485Z,93.50
2022-08-12T06:15:07.777Z,99.50
2022-08-12T06:17:35.203Z,95.80
2022-08-12T06:20:29.455Z,96.20
2022-08-12T06:22:48.541Z,94.90
2022-08-12T06:25:22.012Z,92.60
2022-08-12T06:28:06.768Z,94.40
2022-08-12T06:30:38.362Z,97.60
2022-08-12T06:33:24.834Z,95.30
2022-08-12T06:35:57.731Z,95.90
2022-08-12T06:38:25.803Z,91.90
2022-08-12T06:41:15.474Z,92.10
2022-08-12T06:44:06.597Z,93.00
2022-08-12T06:46:30.655Z,92.70
2022-08-12T06:48:58.956Z,92.20
2022-08-12T06:51:27.268Z,88.00
2022-08-12T06:53:54.621Z,90.20
2022-08-12T06:56:30.460Z,80.20
2022-08-12T06:59:06.777Z,79.80
2022-08-12T07:01:33.483Z,78.10
2022-08-12T07:04:14.319Z,76.00
2022-08-12T07:06:46.852Z,74.70
2022-08-12T07:09:55.719Z,73.40
2022-08-12T07:12:01.641Z,72.50
2022-08-12T07:14:28.391Z,71.50
2022-08-12T07:17:01.947Z,71.40
2022-08-12T07:19:40.608Z,70.50
2022-08-12T07:22:14.021Z,70.20
2022-08-12T07:24:40.822Z,69.50
2022-08-12T07:27:07.534Z,69.00
2022-08-12T07:30:00.035Z,68.00
2022-08-12T07:32:24.378Z,68.00
2022-08-12T07:34:52.337Z,66.80
2022-08-12T07:37:18.969Z,66.40
2022-08-12T07:39:51.281Z,66.40
2022-08-12T07:42:26.811Z,66.00
2022-08-12T07:44:53.598Z,66.00
2022-08-12T07:47:20.239Z,65.00
2022-08-12T07:50:04.909Z,65.90
2022-08-12T07:52:34.525Z,63.80
2022-08-12T07:55:01.589Z,63.20
2022-08-12T07:57:28.255Z,63.00
2022-08-12T07:59:55.802Z,62.80
2022-08-12T08:02:26.801Z,62.90
2022-08-12T08:04:56.915Z,63.40
2022-08-12T08:07:25.608Z,63.10
2022-08-12T08:09:58.485Z,62.40
2022-08-12T08:12:47.844Z,61.50
2022-08-12T08:15:15.524Z,60.40
2022-08-12T08:17:54.450Z,61.20
2022-08-12T08:20:23.368Z,60.80
2022-08-12T08:22:50.010Z,60.50
2022-08-12T08:25:34.589Z,60.20
2022-08-12T08:28:11.733Z,58.40
2022-08-12T08:30:42.285Z,58.90
2022-08-12T08:33:23.758Z,59.20
2022-08-12T08:35:55.974Z,58.50
2022-08-12T08:38:32.097Z,57.20
2022-08-12T08:42:18.108Z,55.10
2022-08-12T08:44:07.757Z,55.10
2022-08-12T08:46:37.492Z,56.20
2022-08-12T08:49:05.293Z,53.80
2022-08-12T08:51:32.021Z,54.50
2022-08-12T08:53:58.672Z,55.30
2022-08-12T08:56:25.280Z,54.90
2022-08-12T08:58:51.907Z,54.80
2022-08-12T09:01:21.457Z,53.10
2022-08-12T09:05:08.205Z,52.50
2022-08-12T09:06:37.782Z,51.30
2022-08-12T09:09:23.887Z,50.90
2022-08-12T09:12:12.262Z,51.30
2022-08-12T09:14:47.063Z,53.40
2022-08-12T09:20:05.827Z,52.70
2022-08-12T09:22:35.114Z,52.30
2022-08-12T09:25:06.201Z,54.80
2022-08-12T09:27:57.730Z,54.20
2022-08-12T09:30:41.253Z,51.00
2022-08-12T09:33:18.311Z,49.30
2022-08-12T09:35:46.794Z,51.60
2022-08-12T09:38:32.083Z,51.70
2022-08-12T09:42:09.269Z,51.90
2022-08-12T09:44:05.131Z,51.70
2022-08-12T09:46:32.275Z,52.70
2022-08-12T09:49:01.664Z,52.40
2022-08-12T09:51:38.302Z,51.30
2022-08-12T09:54:32.813Z,51.90
2022-08-12T09:57:03.692Z,51.30
2022-08-12T10:00:16.634Z,49.60
2022-08-12T10:02:42.675Z,50.10
2022-08-12T10:05:17.702Z,50.30
2022-08-12T10:07:46.886Z,50.50
2022-08-12T10:10:23.784Z,50.50
2022-08-12T10:13:12.946Z,52.20
2022-08-12T10:16:03.076Z,52.00
2022-08-12T10:18:32.654Z,51.20
2022-08-12T10:21:05.637Z,52.70
2022-08-12T10:23:40.301Z,53.30
2022-08-12T10:26:37.685Z,51.40
2022-08-12T10:30:41.035Z,50.70
2022-08-12T10:32:20.579Z,49.80
2022-08-12T10:34:53.690Z,49.80
2022-08-12T10:38:34.507Z,48.80
2022-08-12T10:40:15.611Z,50.60
2022-08-12T10:43:05.772Z,51.70
2022-08-12T10:45:32.807Z,51.00
2022-08-12T10:48:21.516Z,52.20
2022-08-12T10:51:02.079Z,52.40
2022-08-12T10:53:45.944Z,48.90
2022-08-12T10:56:17.172Z,49.20
2022-08-12T10:58:45.968Z,50.90
2022-08-12T11:02:05.245Z,49.90
2022-08-12T11:04:22.960Z,50.20
2022-08-12T11:07:09.093Z,49.60
2022-08-12T11:09:59.753Z,51.60
2022-08-12T11:12:56.505Z,49.50
2022-08-12T11:15:20.641Z,46.70
2022-08-12T11:17:52.477Z,50.40
2022-08-12T11:20:20.882Z,49.90
2022-08-12T11:23:25.323Z,47.40
2022-08-12T11:25:59.649Z,45.30
2022-08-12T11:28:34.015Z,46.90
2022-08-12T11:31:02.992Z,44.40
2022-08-12T11:34:04.454Z,46.40
2022-08-12T11:36:16.920Z,46.00
2022-08-12T11:38:43.686Z,44.60
2022-08-12T11:41:31.775Z,47.90
2022-08-12T11:44:35.044Z,49.30
2022-08-12T11:46:51.153Z,49.70
2022-08-12T11:49:30.800Z,48.20
2022-08-12T11:51:59.413Z,49.20
2022-08-12T11:54:26.048Z,51.80
2022-08-12T11:57:00.059Z,47.00
2022-08-12T12:02:18.826Z,46.50
2022-08-12T12:04:46.075Z,49.90
2022-08-12T12:07:22.360Z,49.80
2022-08-12T12:09:53.413Z,45.50
2022-08-12T12:12:25.039Z,46.80
2022-08-12T12:14:54.168Z,49.70
2022-08-12T12:17:21.827Z,50.50
2022-08-12T12:19:48.843Z,48.90
2022-08-12T12:22:15.751Z,51.30
2022-08-12T12:24:51.006Z,46.80
2022-08-12T12:27:20.560Z,49.30
2022-08-12T12:30:18.745Z,49.10
2022-08-12T12:32:54.251Z,44.10
2022-08-12T12:36:19.661Z,45.30
2022-08-12T12:38:12.326Z,46.20
2022-08-12T12:40:44.180Z,49.80
2022-08-12T12:43:11.942Z,46.90
2022-08-12T12:45:39.640Z,49.10
2022-08-12T12:48:13.143Z,45.30
2022-08-12T12:51:10.877Z,45.10
2022-08-12T12:54:06.519Z,39.80
2022-08-12T12:56:34.190Z,43.50
2022-08-12T12:59:03.434Z,44.30
2022-08-12T13:01:32.890Z,42.20
2022-08-12T13:04:02.975Z,41.10
2022-08-12T13:06:31.474Z,39.90
2022-08-12T13:09:03.130Z,42.70
2022-08-12T13:11:41.453Z,44.90
2022-08-12T13:14:12.930Z,44.40
2022-08-12T13:16:55.232Z,46.00
2022-08-12T13:19:36.676Z,42.80
2022-08-12T13:22:19.311Z,47.50
2022-08-12T13:24:51.852Z,46.50
2022-08-12T13:27:21.472Z,49.10
2022-08-12T13:29:48.880Z,42.80
2022-08-12T13:32:28.210Z,41.90
2022-08-12T13:35:04.642Z,45.00
2022-08-12T13:37:54.806Z,46.90
2022-08-12T13:40:26.481Z,48.00
2022-08-12T13:42:57.397Z,41.90
2022-08-12T13:45:25.446Z,47.40
2022-08-12T13:48:00.268Z,45.80
2022-08-12T13:50:38.133Z,45.50
2022-08-12T13:53:24.928Z,46.80
2022-08-12T13:56:01.182Z,44.10
2022-08-12T13:58:30.080Z,38.70
2022-08-12T14:00:57.984Z,34.00
2022-08-12T14:03:28.569Z,37.60
2022-08-12T14:06:15.391Z,41.20
2022-08-12T14:08:42.773Z,42.40
2022-08-12T14:11:09.618Z,45.60
2022-08-12T14:14:03.828Z,34.30
2022-08-12T14:16:37.809Z,39.70
2022-08-12T14:19:22.564Z,45.50
2022-08-12T14:21:59.471Z,43.00
2022-08-12T14:24:27.336Z,46.50
2022-08-12T14:26:58.841Z,40.40
2022-08-12T14:29:56.268Z,42.60
2022-08-12T14:32:17.417Z,42.70
2022-08-12T14:34:46.295Z,41.20
2022-08-12T14:37:54.828Z,40.70
2022-08-12T14:40:00.472Z,44.70
2022-08-12T14:42:28.178Z,45.10
2022-08-12T14:45:01.623Z,41.30
2022-08-12T14:47:35.063Z,40.70
2022-08-12T14:50:37.714Z,43.90
2022-08-12T14:58:28.318Z,45.60
2022-08-12T15:01:16.996Z,45.40
2022-08-12T15:03:57.336Z,42.90
2022-08-12T15:06:39.746Z,45.50
2022-08-12T15:09:13.924Z,38.90
2022-08-12T15:11:54.398Z,35.00
2022-08-12T15:14:26.526Z,41.50
2022-08-12T15:16:56.980Z,41.80
2022-08-12T15:20:28.648Z,39.90
2022-08-12T15:22:36.080Z,35.30
2022-08-12T15:25:07.397Z,32.30
2022-08-12T15:28:05.255Z,26.20
2022-08-12T15:30:32.279Z,28.80
2022-08-12T15:33:00.412Z,25.60
2022-08-12T15:35:50.234Z,26.10
2022-08-12T15:38:20.612Z,24.40
2022-08-12T15:40:54.685Z,23.40
2022-08-12T15:43:35.489Z,22.40
2022-08-12T15:46:15.094Z,22.80
2022-08-12T15:48:47.449Z,21.30
2022-08-12T15:51:58.724Z,19.90
2022-08-12T15:54:33.168Z,20.80
2022-08-12T15:57:05.332Z,20.60
2022-08-12T15:59:51.143Z,20.40
2022-08-12T16:02:19.202Z,20.60
2022-08-12T16:04:50.200Z,20.80
2022-08-12T16:07:26.017Z,21.10
2022-08-12T16:10:05.437Z,19.90
2022-08-12T16:12:39.423Z,20.20
2022-08-12T16:15:07.075Z,17.20
2022-08-12T16:18:18.502Z,19.90
2022-08-12T16:20:27.827Z,20.40
2022-08-12T16:23:26.259Z,18.30
2022-08-12T16:26:05.665Z,19.60
2022-08-12T16:28:40.710Z,21.50
2022-08-12T16:31:09.790Z,20.20
2022-08-12T16:33:56.477Z,19.20
2022-08-12T16:36:25.412Z,20.70
2022-08-12T16:38:52.192Z,21.30
2022-08-12T16:41:18.863Z,19.60
2022-08-12T16:43:46.609Z,20.40
2022-08-12T16:46:32.419Z,21.50
2022-08-12T16:49:04.270Z,20.50
2022-08-12T16:51:40.263Z,20.70
2022-08-12T16:54:14.087Z,18.10
2022-08-12T16:56:54.801Z,21.80
2022-08-12T16:59:25.904Z,20.40
2022-08-12T17:01:57.574Z,22.20
2022-08-12T17:04:25.250Z,25.10
2022-08-12T17:06:52.529Z,27.80
2022-08-12T17:09:19.243Z,23.10
2022-08-12T17:11:49.689Z,23.30
2022-08-12T17:14:16.893Z,23.30
2022-08-12T17:16:45.689Z,27.50
2022-08-12T17:19:13.882Z,27.00
2022-08-12T17:22:01.169Z,28.10
2022-08-12T17:24:30.801Z,26.90
2022-08-12T17:26:58.673Z,28.10
2022-08-12T17:30:00.348Z,29.90
2022-08-12T17:32:14.146Z,34.30
2022-08-12T17:34:59.893Z,34.20
2022-08-12T17:37:27.009Z,30.60
2022-08-12T17:40:15.359Z,33.40
2022-08-12T17:42:43.498Z,30.20
2022-08-12T17:45:17.030Z,34.90
2022-08-12T17:47:44.373Z,32.20
2022-08-12T17:50:12.816Z,35.80
2022-08-12T17:52:40.212Z,33.90
2022-08-12T17:55:40.615Z,32.30
2022-08-12T17:57:55.370Z,32.10
2022-08-12T18:00:22.008Z,35.30
2022-08-12T18:02:49.304Z,33.00
2022-08-12T18:05:18.056Z,33.90
2022-08-12T18:07:49.717Z,33.20
2022-08-12T18:10:38.511Z,32.80
2022-08-12T18:13:10.670Z,33.60
2022-08-12T18:16:04.191Z,30.60
2022-08-12T18:18:24.297Z,32.80
2022-08-12T18:20:57.570Z,32.30
2022-08-12T18:23:27.367Z,32.20
2022-08-12T18:26:17.502Z,32.40
2022-08-12T18:28:44.533Z,32.00
2022-08-12T18:31:17.371Z,32.20
2022-08-12T18:33:46.202Z,31.40
2022-08-12T18:36:13.548Z,33.20
2022-08-12T18:38:40.401Z,32.30
2022-08-12T18:41:31.997Z,34.50
2022-08-12T18:44:09.729Z,33.70
2022-08-12T18:46:55.406Z,32.70
2022-08-12T18:49:30.737Z,32.60
2022-08-12T18:52:04.215Z,32.80
2022-08-12T18:54:37.427Z,32.90
2022-08-12T18:57:19.591Z,32.70
2022-08-12T19:00:01.146Z,32.90
2022-08-12T19:02:32.762Z,32.90
2022-08-12T19:05:03.205Z,33.30
2022-08-12T19:07:50.163Z,33.20
2022-08-12T19:10:23.116Z,33.20
2022-08-12T19:13:08.954Z,33.60
2022-08-12T19:15:43.037Z,33.50
2022-08-12T19:18:10.845Z,34.30
2022-08-12T19:20:39.271Z,35.00
2022-08-12T19:23:08.199Z,35.20
2022-08-12T19:26:00.329Z,36.20
2022-08-12T19:28:34.437Z,36.40
2022-08-12T19:31:56.859Z,37.20
2022-08-12T19:37:14.832Z,37.90
2022-08-12T19:40:10.189Z,38.00
2022-08-12T19:42:28.806Z,38.60
2022-08-12T19:45:02.264Z,38.90
2022-08-12T19:47:31.444Z,39.40
2022-08-12T19:50:06.737Z,39.70
2022-08-12T19:52:33.777Z,40.20
2022-08-12T19:55:01.396Z,40.40
2022-08-12T19:57:29.336Z,41.10
2022-08-12T20:00:04.134Z,41.30
2022-08-12T20:02:34.604Z,42.60
2022-08-12T20:06:04.702Z,42.90
2022-08-12T20:07:57.006Z,42.90
2022-08-12T20:10:35.237Z,42.70
2022-08-12T20:13:18.243Z,43.00
2022-08-12T20:15:59.488Z,43.10
2022-08-12T20:18:52.978Z,43.30
2022-08-12T20:21:15.999Z,42.50
2022-08-12T20:24:00.564Z,44.00
2022-08-12T20:26:28.082Z,44.30
2022-08-12T20:28:55.406Z,44.30
2022-08-12T20:31:22.073Z,44.10
2022-08-12T20:33:50.629Z,44.50
2022-08-12T20:36:42.924Z,45.20
2022-08-12T20:39:34.324Z,45.30
2022-08-12T20:42:07.113Z,45.50
2022-08-12T20:44:36.333Z,45.90
2022-08-12T20:47:18.054Z,46.10
2022-08-12T20:49:47.138Z,47.10
2022-08-12T20:52:25.241Z,46.20
2022-08-12T20:54:51.896Z,46.40
2022-08-12T20:57:19.424Z,47.40
2022-08-12T20:59:49.395Z,47.50
2022-08-12T21:02:18.796Z,47.90
2022-08-12T21:05:16.073Z,47.40
2022-08-12T21:07:51.613Z,48.60
2022-08-12T21:10:20.538Z,48.70
2022-08-12T21:12:47.911Z,49.00
2022-08-12T21:15:16.660Z,49.40
2022-08-12T21:18:09.406Z,49.90
2022-08-12T21:20:32.527Z,49.30
2022-08-12T21:22:59.312Z,48.90
2022-08-12T21:25:44.687Z,50.10
2022-08-12T21:28:13.878Z,49.80
2022-08-12T21:31:11.360Z,50.30
2022-08-12T21:33:31.785Z,50.70
2022-08-12T21:36:00.881Z,51.20
2022-08-12T21:38:34.337Z,51.90
2022-08-12T21:41:01.205Z,52.00
2022-08-12T21:43:44.514Z,52.80
2022-08-12T21:46:33.715Z,51.70
2022-08-12T21:49:03.980Z,53.00
2022-08-12T21:51:49.338Z,52.50
2022-08-12T21:54:22.008Z,52.90
2022-08-12T21:56:49.970Z,52.80
2022-08-12T21:59:17.351Z,53.20
2022-08-12T22:01:48.732Z,52.30
2022-08-12T22:04:35.137Z,52.30
2022-08-12T22:07:01.946Z,53.10
2022-08-12T22:09:29.462Z,52.60
2022-08-12T22:12:28.135Z,52.90
2022-08-12T22:14:54.780Z,52.70
2022-08-12T22:17:21.424Z,53.30
2022-08-12T22:19:50.460Z,53.00
2022-08-12T22:22:17.228Z,53.10
2022-08-12T22:24:47.889Z,54.60
2022-08-12T22:27:32.003Z,54.80
2022-08-12T22:30:19.848Z,54.10
2022-08-12T22:32:51.509Z,56.50
2022-08-12T22:35:56.239Z,56.50
2022-08-12T22:38:26.374Z,59.30
2022-08-12T22:41:01.640Z,60.80
2022-08-12T22:44:00.710Z,59.10
2022-08-12T22:46:37.190Z,56.60
2022-08-12T22:49:06.659Z,56.60
2022-08-12T22:51:57.418Z,56.70
2022-08-12T22:54:35.155Z,56.90
2022-08-12T22:57:03.218Z,59.40
2022-08-12T22:59:51.508Z,58.90
2022-08-12T23:02:17.672Z,58.70
2022-08-12T23:04:56.364Z,57.30
2022-08-12T23:07:24.505Z,57.10
2022-08-12T23:09:51.244Z,57.60
2022-08-12T23:12:46.591Z,57.80
2022-08-12T23:15:14.020Z,58.90
2022-08-12T23:17:41.827Z,60.00
2022-08-12T23:20:11.002Z,59.20
2022-08-12T23:22:38.266Z,57.80
2022-08-12T23:25:06.251Z,57.80
2022-08-12T23:28:03.733Z,57.90
2022-08-12T23:30:31.801Z,57.90
2022-08-12T23:33:02.319Z,57.20
2022-08-12T23:35:46.001Z,57.20
2022-08-12T23:38:31.096Z,58.90
2022-08-12T23:41:02.445Z,59.90
2022-08-12T23:43:39.574Z,59.10
2022-08-12T23:46:11.478Z,59.50
2022-08-12T23:48:38.366Z,58.90
2022-08-12T23:51:22.241Z,59.20
2022-08-12T23:53:55.446Z,60.80
2022-08-12T23:56:23.521Z,61.40
2022-08-12T23:58:52.506Z,62.40
